x

Long Key, Fl (lonf1) Weather Station

11:00am - Sat 23rd Aug 2014 All times are CDT. -4 hours from GMT.

  • Wind
    11mph, 13mph gusts
  • Sea Temp 88°f
  • Air Temp 84°f
  • Sea Pressure 1015.5mb
  • Long Key, Fl
  • Long Key, Fl

More Historic Weather Station data

Upgrade to MSW Pro to gain access to the past 30 days of data for over 8000 Wavebouys and Weather Stations around the globe.

Join Pro

Comparision Forecast

View Surf forecast
   
Sat 08/23 11:00am 11 13 mph 1015.5mb 88f 84f
10:00am 8 10 mph 1015.3mb 88f 85f
9:00am 10
mph
1015.1mb 88f 84f
8:00am 10 11 mph 1015.1mb 88f 84f
7:00am 7 8 mph 1014.8mb 88f 85f
6:00am 6 7 mph 1014.6mb 88f 85f
5:00am 8 9 mph 1014.3mb 88f 85f
4:00am 9 10 mph 1014.2mb 89f 85f
3:00am 10 13 mph 1014.6mb 89f 85f
2:00am 15 16 mph 1015.2mb 89f 85f
1:00am 15 20 mph 1015.8mb 89f 86f
12:00am 15 17 mph 1016.4mb 90f 86f
Fri 08/22 11:00pm 14 15 mph 1017.3mb 90f 86f
10:00pm 10 11 mph 1017.3mb 90f 86f
9:00pm 11 14 mph 1017.2mb 91f 86f
8:00pm 11 13 mph 1016.8mb 91f 86f
7:00pm 10 11 mph 1016.2mb 91f 86f
6:00pm 11 14 mph 1016.1mb 91f 87f
5:00pm 8 11 mph 1016.6mb 91f 86f
4:00pm 9 10 mph 1016.7mb 91f 87f
3:00pm 8 9 mph 1017.7mb 91f 86f
2:00pm 7 8 mph 1018.2mb 91f 87f
1:00pm 6 7 mph 1018.6mb 90f 86f
12:00pm 9 10 mph 1019mb 89f 87f
11:00am 9 10 mph 1019.2mb 89f 87f
10:00am 8 10 mph 1018.9mb 89f 86f
9:00am 9 10 mph 1018.6mb 89f 86f
8:00am 9 11 mph 1018.4mb 89f 85f
7:00am 9 10 mph 1017.8mb 89f 85f
6:00am 9 10 mph 1017.5mb 89f 85f
5:00am 9 11 mph 1018mb 89f 85f
4:00am 10 11 mph 1018.1mb 90f 86f
3:00am 10 13 mph 1018.3mb 90f 86f
2:00am 8 10 mph 1018.9mb 90f 86f
1:00am 8 10 mph 1019.6mb 91f 86f
12:00am 6 7 mph 1020.2mb 91f 86f
Thu 08/21 11:00pm 9 11 mph 1020.2mb 91f 86f
10:00pm 11 13 mph 1019.7mb 91f 86f
9:00pm 14 16 mph 1018.8mb 91f 86f
8:00pm 13 15 mph 1018.3mb 91f 86f
7:00pm 10 11 mph 1018mb 91f 86f
6:00pm 8 9 mph 1018.5mb 91f 87f
5:00pm 9 10 mph 1018.6mb 91f 87f
4:00pm 11 13 mph 1018.9mb 91f 87f
3:00pm 13 15 mph 1019.2mb 91f 87f
2:00pm 10 13 mph 1019.7mb 91f 87f
1:00pm 10 13 mph 1020.1mb 91f 87f
12:00pm 8 10 mph 1020.6mb 90f 86f
11:00am 10 13 mph 1020.3mb 90f 87f
10:00am 9 10 mph 1020.3mb 90f 86f
9:00am 8 10 mph 1019.9mb 89f 86f
8:00am 10 13 mph 1019.4mb 90f 86f
7:00am 8 9 mph 1018.9mb 90f 85f
6:00am 9 11 mph 1018.5mb 90f 86f
5:00am 8
mph
1018.5mb 90f 86f
4:00am 8 9 mph 1018.6mb 90f 85f
3:00am 8 10 mph 1019.1mb 90f 86f
2:00am 8 9 mph 1019.3mb 91f 86f
1:00am 10 11 mph 1019.4mb 91f 86f
12:00am 8 9 mph 1019.7mb 91f 86f
Wed 08/20 11:00pm 9 11 mph 1019.6mb 91f 86f
10:00pm 6 10 mph 1019.3mb 91f 86f
9:00pm 10 11 mph 1019.4mb 92f 84f
8:00pm 9 13 mph 1018.8mb 92f 85f
7:00pm 3
mph
1018.8mb 92f 85f
6:00pm 3 7 mph 1018mb 92f 85f
5:00pm 9 16 mph 1018.7mb 92f 87f
4:00pm 9
mph
1018.8mb 92f 88f
3:00pm 7 9 mph 1018.6mb 91f 88f
2:00pm 3 5 mph 1019.1mb 91f 87f
1:00pm 6 8 mph 1019.4mb 91f 87f
12:00pm 7
mph
1019.9mb 91f 86f
11:00am 5
mph
1020.1mb 90f 86f
10:00am 1 2 mph 1019.2mb 90f 86f
9:00am 1 2 mph 1018.6mb 90f 87f
8:00am  -  1 mph 1017.9mb 90f 86f
7:00am 3 5 mph 1017.6mb 90f 85f
6:00am 5 6 mph 1016.9mb 90f 85f
5:00am 3 5 mph 1016.6mb 90f 85f
4:00am 3 5 mph 1016.6mb 90f 85f
3:00am 8
mph
1016.6mb 90f 85f
2:00am 6 8 mph 1017.2mb 90f 86f
1:00am 8 9 mph 1017.5mb 91f 86f
12:00am 9 10 mph 1017.9mb 91f 86f
Tue 08/19 11:00pm 6
mph
1017.9mb 91f 86f
10:00pm 5 6 mph 1017.5mb 91f 86f
9:00pm 5 6 mph 1016.8mb 91f 87f
8:00pm 3 5 mph 1016.3mb 92f 87f
7:00pm 3 5 mph 1016.3mb 92f 88f
6:00pm 6 7 mph 1016mb 92f 88f
5:00pm 6 7 mph 1016.2mb 92f 88f